Time;durP1;ratioP1;P1;durP2;ratioP2;P2;SDS_P1;SDS_P2;PMS_P1;PMS_P2;Temp;Humidity;BMP_temperature;BMP_pressure;BME280_temperature;BME280_humidity;BME280_pressure;Samples;Min_cycle;Max_cycle;Signal;HPM_P1;HPM_P2
2023/06/02 05:21:59;;;;;;;8.73;4.97;;;;;;;;;;6169434;23;20133;-83
2023/06/02 05:24:25;;;;;;;13.55;5.95;;;;;;;;;;6154333;23;20017;-86
2023/06/02 05:26:51;;;;;;;13.38;5.40;;;;;;;;;;6181557;23;20750;-84
2023/06/02 05:29:20;;;;;;;10.52;5.68;;;;;;;;;;6180124;23;20009;-85
2023/06/02 05:31:46;;;;;;;10.95;5.07;;;;;;;;;;6152679;23;20009;-84
2023/06/02 05:34:17;;;;;;;9.93;5.43;;;;;;;;;;6153944;23;20397;-81
2023/06/02 05:36:43;;;;;;;11.43;5.07;;;;;;;;;;6158006;23;20016;-82
2023/06/02 16:02:50;;;;;;;14.27;7.70;;;;;;;;;;6188146;23;20530;-82
2023/06/02 16:05:17;;;;;;;12.25;6.82;;;;;;;;;;6179208;23;20013;-82
2023/06/02 16:07:44;;;;;;;15.45;8.95;;;;;;;;;;6153520;23;20044;-83
2023/06/02 16:10:10;;;;;;;12.00;8.10;;;;;;;;;;6153972;23;20017;-83
2023/06/02 16:12:36;;;;;;;13.57;6.88;;;;;;;;;;6154481;23;20004;-83
2023/06/02 16:15:02;;;;;;;13.80;7.43;;;;;;;;;;6180372;23;20013;-82
2023/06/02 16:17:28;;;;;;;9.25;6.13;;;;;;;;;;6181685;23;20004;-84
2023/06/02 16:19:54;;;;;;;12.73;7.75;;;;;;;;;;6181722;23;20017;-85
2023/06/02 16:22:20;;;;;;;12.43;8.35;;;;;;;;;;6155432;23;20012;-83
2023/06/02 16:29:52;;;;;;;11.70;7.05;;;;;;;;;;6180619;22;20025;-86
2023/06/02 16:32:18;;;;;;;12.23;6.18;;;;;;;;;;6154900;23;20016;-87
2023/06/02 16:34:44;;;;;;;12.40;7.40;;;;;;;;;;6155322;23;20013;-86
2023/06/02 16:37:11;;;;;;;10.70;6.35;;;;;;;;;;6183195;23;20016;-86
2023/06/02 16:39:37;;;;;;;12.52;7.63;;;;;;;;;;6181908;23;20040;-87
2023/06/02 16:42:03;;;;;;;15.15;7.22;;;;;;;;;;6155476;23;20471;-86
2023/06/02 16:44:29;;;;;;;15.45;6.53;;;;;;;;;;6154858;23;20013;-83
2023/06/02 16:46:55;;;;;;;12.05;7.53;;;;;;;;;;6181498;23;20086;-86
2023/06/02 16:54:33;;;;;;;10.55;6.43;;;;;;;;;;6093608;23;20034;-85
2023/06/02 16:56:59;;;;;;;10.77;7.38;;;;;;;;;;6096799;23;20088;-85
2023/06/02 16:59:35;;;;;;;;;;;;;;;;;;;;;
2023/06/02 17:04:47;;;;;;;11.80;7.13;;;;;;;;;;6194645;23;20051;-84
2023/06/02 17:09:57;;;;;;;11.20;8.00;;;;;;;;;;6151111;23;20467;-84
2023/06/02 17:12:24;;;;;;;12.98;9.70;;;;;;;;;;6128498;23;20018;-85
2023/06/02 17:14:50;;;;;;;12.85;8.38;;;;;;;;;;6128091;23;20745;-83
2023/06/02 17:17:16;;;;;;;12.77;7.93;;;;;;;;;;6127361;23;20100;-83
2023/06/02 17:19:44;;;;;;;11.50;7.60;;;;;;;;;;6128443;23;20037;-86
2023/06/02 17:22:11;;;;;;;21.38;8.23;;;;;;;;;;6128195;23;20108;-86
2023/06/02 17:24:48;;;;;;;;;;;;;;;;;;;;;
2023/06/02 17:27:22;;;;;;;13.38;6.55;;;;;;;;;;6183139;23;20104;-85
2023/06/02 17:29:48;;;;;;;17.73;8.07;;;;;;;;;;6155090;23;20012;-84
2023/06/02 17:32:16;;;;;;;15.63;9.27;;;;;;;;;;6155904;23;20059;-88
2023/06/02 17:37:18;;;;;;;12.20;7.80;;;;;;;;;;6203532;22;20096;-82
2023/06/02 17:45:24;;;;;;;20.27;9.73;;;;;;;;;;6205676;23;20095;-87
2023/06/02 17:48:07;;;;;;;14.43;8.82;;;;;;;;;;6179835;23;20393;-87
2023/06/02 17:50:40;;;;;;;11.43;6.78;;;;;;;;;;6177960;23;20024;-87
2023/06/02 17:56:09;;;;;;;13.27;7.50;;;;;;;;;;6211797;23;20058;-89
2023/06/02 17:58:36;;;;;;;;;;;;;;;;;;6184872;23;20021;-88
2023/06/02 18:01:09;;;;;;;16.08;9.70;;;;;;;;;;6184251;23;19904;-86
2023/06/02 18:03:35;;;;;;;19.67;9.73;;;;;;;;;;6210523;23;20301;-86
2023/06/02 18:06:19;;;;;;;12.13;8.07;;;;;;;;;;6183994;23;20015;-88
2023/06/02 18:09:07;;;;;;;11.13;6.75;;;;;;;;;;6211284;23;20026;-84
2023/06/02 18:11:54;;;;;;;11.90;7.22;;;;;;;;;;6184028;23;20009;-84
2023/06/02 18:14:20;;;;;;;21.13;8.60;;;;;;;;;;6184309;23;20452;-86
2023/06/02 18:16:46;;;;;;;9.93;6.63;;;;;;;;;;6184218;23;20329;-85
2023/06/02 18:19:20;;;;;;;13.30;6.40;;;;;;;;;;6213291;23;20440;-84
2023/06/02 18:21:57;;;;;;;11.25;6.25;;;;;;;;;;6213373;23;20023;-85
2023/06/02 18:24:23;;;;;;;9.35;5.88;;;;;;;;;;6183333;23;20012;-86
2023/06/02 18:26:49;;;;;;;14.18;7.85;;;;;;;;;;6212026;23;20005;-88
2023/06/02 18:32:06;;;;;;;10.88;6.90;;;;;;;;;;6135794;23;20330;-84
2023/06/02 18:35:08;;;;;;;9.90;6.18;;;;;;;;;;6186479;23;20005;-86
2023/06/02 18:37:35;;;;;;;12.35;5.70;;;;;;;;;;6180476;23;20017;-85
2023/06/02 18:40:04;;;;;;;11.35;5.53;;;;;;;;;;6186591;23;20021;-86
2023/06/02 18:42:30;;;;;;;11.20;7.10;;;;;;;;;;6185541;23;20009;-85
2023/06/02 18:45:04;;;;;;;12.32;7.05;;;;;;;;;;6186036;23;20074;-85
2023/06/02 18:47:30;;;;;;;10.43;6.57;;;;;;;;;;6186271;23;20004;-85
2023/06/02 18:50:07;;;;;;;12.38;5.47;;;;;;;;;;6185848;23;20104;-84
2023/06/02 18:52:34;;;;;;;9.80;6.18;;;;;;;;;;6186000;23;20012;-86
2023/06/02 18:55:05;;;;;;;9.75;6.28;;;;;;;;;;6177396;23;20027;-86
2023/06/02 18:57:39;;;;;;;8.30;5.68;;;;;;;;;;6156155;23;20020;-85
2023/06/02 19:16:42;;;;;;;9.82;6.07;;;;;;;;;;6161455;23;20037;-82
2023/06/02 19:29:21;;;;;;;;;;;;;;;;;;;;;
2023/06/02 19:40:46;;;;;;;10.13;8.07;;;;;;;;;;6154373;23;20029;-83
2023/06/02 19:43:19;;;;;;;9.00;6.93;;;;;;;;;;6145071;23;20022;-85
2023/06/02 19:46:21;;;;;;;14.93;8.02;;;;;;;;;;6153214;23;20005;-82
2023/06/02 19:52:23;;;;;;;;;;;;;;;;;;;;;
2023/06/02 19:55:19;;;;;;;10.63;7.40;;;;;;;;;;6094281;23;20128;-81
2023/06/02 19:57:52;;;;;;;13.73;7.10;;;;;;;;;;6076743;23;20072;-81
2023/06/02 20:00:38;;;;;;;10.73;6.53;;;;;;;;;;6063433;23;20035;-81
2023/06/02 20:03:04;;;;;;;17.38;8.20;;;;;;;;;;6118729;23;20036;-81
2023/06/02 20:05:30;;;;;;;13.60;9.00;;;;;;;;;;6124293;23;20013;-80
2023/06/02 20:07:56;;;;;;;11.45;7.10;;;;;;;;;;6124417;23;20381;-80
2023/06/02 20:10:23;;;;;;;12.98;6.93;;;;;;;;;;6124111;23;20013;-81
2023/06/02 20:12:50;;;;;;;12.75;7.78;;;;;;;;;;6111871;23;20013;-80
2023/06/02 20:15:16;;;;;;;11.43;7.60;;;;;;;;;;6124239;23;20006;-80
2023/06/02 20:31:26;;;;;;;10.48;7.40;;;;;;;;;;6208193;23;20074;-79
2023/06/02 20:34:00;;;;;;;11.98;8.60;;;;;;;;;;6182796;23;20056;-79
2023/06/02 20:39:39;;;;;;;11.98;8.00;;;;;;;;;;6199056;23;20024;-79
2023/06/02 20:42:23;;;;;;;12.57;7.70;;;;;;;;;;6210062;23;20087;-79
2023/06/02 20:45:27;;;;;;;11.88;7.53;;;;;;;;;;6204602;23;20040;-79
2023/06/02 20:48:57;;;;;;;11.43;7.82;;;;;;;;;;6092090;23;20109;-80
2023/06/02 20:51:23;;;;;;;9.65;6.60;;;;;;;;;;6107040;23;20470;-80
2023/06/02 20:53:54;;;;;;;11.13;8.40;;;;;;;;;;6093780;23;20026;-78
2023/06/02 20:56:56;;;;;;;9.57;6.82;;;;;;;;;;6093367;23;20016;-78
2023/06/02 20:59:22;;;;;;;14.48;7.65;;;;;;;;;;6200380;23;20096;-78
2023/06/02 21:01:48;;;;;;;14.40;7.25;;;;;;;;;;6206679;23;20009;-79
2023/06/02 21:04:14;;;;;;;9.80;7.47;;;;;;;;;;6206667;23;20016;-79
2023/06/02 21:06:40;;;;;;;9.55;6.60;;;;;;;;;;6204819;23;20004;-79
2023/06/02 21:09:08;;;;;;;13.02;7.65;;;;;;;;;;6206556;23;20017;-79
2023/06/02 21:11:34;;;;;;;9.80;7.15;;;;;;;;;;6208000;23;20017;-78
2023/06/02 21:14:00;;;;;;;10.73;8.25;;;;;;;;;;6206431;23;20094;-79
2023/06/02 21:16:28;;;;;;;9.13;6.78;;;;;;;;;;6209581;23;20063;-78
2023/06/02 21:18:54;;;;;;;13.02;9.98;;;;;;;;;;6209849;23;20059;-80
2023/06/02 21:21:20;;;;;;;19.95;15.00;;;;;;;;;;6208575;23;20444;-80
2023/06/02 21:23:46;;;;;;;16.02;13.65;;;;;;;;;;6210338;23;20012;-81
2023/06/02 21:26:12;;;;;;;14.85;8.93;;;;;;;;;;6208950;23;20024;-80
2023/06/02 21:28:38;;;;;;;11.70;10.50;;;;;;;;;;6208484;23;20025;-80
2023/06/02 21:31:04;;;;;;;14.10;9.52;;;;;;;;;;6210543;23;20063;-80
2023/06/02 21:33:30;;;;;;;21.85;9.68;;;;;;;;;;6210862;23;20289;-80
2023/06/02 21:35:56;;;;;;;13.65;9.98;;;;;;;;;;6209032;23;20036;-80
2023/06/02 21:38:22;;;;;;;14.77;9.30;;;;;;;;;;6210963;23;20012;-80
2023/06/02 21:40:48;;;;;;;14.95;10.20;;;;;;;;;;6208470;23;20416;-80
2023/06/02 21:43:15;;;;;;;19.23;12.32;;;;;;;;;;6211421;23;20017;-81
2023/06/02 21:45:41;;;;;;;14.95;11.05;;;;;;;;;;6210828;23;20067;-80
2023/06/02 21:48:06;;;;;;;13.68;8.68;;;;;;;;;;6210644;23;20421;-80
2023/06/02 21:50:32;;;;;;;12.70;8.80;;;;;;;;;;6209628;23;20008;-80
2023/06/02 21:52:58;;;;;;;13.25;8.52;;;;;;;;;;6208856;23;20019;-80
2023/06/02 21:55:25;;;;;;;10.07;7.55;;;;;;;;;;6211513;23;20009;-80
2023/06/02 21:57:51;;;;;;;12.70;8.35;;;;;;;;;;6208503;23;20065;-79
2023/06/02 22:00:17;;;;;;;11.43;8.88;;;;;;;;;;6208795;23;20087;-79
2023/06/02 22:02:44;;;;;;;15.57;8.73;;;;;;;;;;6211038;23;20044;-80
2023/06/02 22:05:11;;;;;;;14.18;9.32;;;;;;;;;;6210708;23;20015;-79
2023/06/02 22:07:37;;;;;;;16.80;10.48;;;;;;;;;;6208880;23;20107;-79
2023/06/02 22:10:03;;;;;;;13.55;8.43;;;;;;;;;;6210556;23;20677;-80
2023/06/02 22:12:29;;;;;;;11.85;8.25;;;;;;;;;;6210337;23;20001;-80
2023/06/02 22:14:55;;;;;;;14.45;10.95;;;;;;;;;;6210922;23;20009;-80
2023/06/02 22:17:22;;;;;;;13.90;10.50;;;;;;;;;;6208599;23;20008;-80
2023/06/02 22:19:48;;;;;;;13.50;9.23;;;;;;;;;;6211107;23;20008;-80
2023/06/02 22:22:14;;;;;;;13.15;8.43;;;;;;;;;;6210644;23;20024;-79
2023/06/02 22:24:41;;;;;;;10.88;6.63;;;;;;;;;;6210794;23;20012;-81
2023/06/02 22:27:07;;;;;;;10.50;7.03;;;;;;;;;;6210371;23;20020;-81
2023/06/02 22:29:33;;;;;;;10.00;6.60;;;;;;;;;;6211332;23;20087;-80
2023/06/02 22:31:59;;;;;;;12.35;6.43;;;;;;;;;;6210338;23;20048;-80
2023/06/02 22:34:25;;;;;;;9.45;7.00;;;;;;;;;;6211364;23;20009;-80
2023/06/02 22:36:51;;;;;;;15.63;8.82;;;;;;;;;;6210388;23;20082;-80
2023/06/02 22:39:17;;;;;;;15.23;8.73;;;;;;;;;;6211157;23;20021;-81
2023/06/02 22:41:43;;;;;;;12.77;7.50;;;;;;;;;;6210280;23;20020;-80
2023/06/02 22:44:09;;;;;;;11.77;7.63;;;;;;;;;;6210511;23;20017;-80
2023/06/02 22:46:35;;;;;;;9.68;7.30;;;;;;;;;;6210578;23;20015;-79
2023/06/02 22:49:03;;;;;;;10.90;7.40;;;;;;;;;;6208196;23;20021;-78
2023/06/02 22:51:30;;;;;;;8.02;5.93;;;;;;;;;;6210775;23;20004;-79
2023/06/02 22:53:56;;;;;;;14.55;8.00;;;;;;;;;;6210650;23;20039;-79
2023/06/02 22:56:22;;;;;;;11.85;6.57;;;;;;;;;;6210741;23;20005;-79
2023/06/02 22:58:48;;;;;;;11.57;6.82;;;;;;;;;;6208662;23;20347;-79
2023/06/02 23:01:14;;;;;;;14.52;7.90;;;;;;;;;;6210744;23;20004;-79
2023/06/02 23:03:40;;;;;;;17.77;8.60;;;;;;;;;;6210508;23;20024;-78
2023/06/02 23:06:07;;;;;;;15.20;8.98;;;;;;;;;;6212797;23;20325;-79
2023/06/02 23:08:33;;;;;;;9.93;6.10;;;;;;;;;;6212256;23;20008;-79
2023/06/02 23:11:00;;;;;;;12.57;7.82;;;;;;;;;;6212191;23;20103;-80
2023/06/02 23:13:26;;;;;;;13.32;7.50;;;;;;;;;;6212705;23;20008;-79
2023/06/02 23:15:52;;;;;;;11.32;8.10;;;;;;;;;;6211977;23;20137;-79
2023/06/02 23:18:18;;;;;;;12.05;8.00;;;;;;;;;;6212961;23;20035;-79
2023/06/02 23:20:47;;;;;;;10.65;7.57;;;;;;;;;;6210088;23;20015;-79
2023/06/02 23:23:13;;;;;;;12.25;7.47;;;;;;;;;;6212486;23;20012;-79
2023/06/02 23:25:39;;;;;;;9.20;6.63;;;;;;;;;;6212019;23;20423;-79
2023/06/02 23:28:05;;;;;;;8.68;6.20;;;;;;;;;;6212531;23;20020;-79
2023/06/02 23:30:31;;;;;;;10.90;7.40;;;;;;;;;;6211510;23;20020;-79
2023/06/02 23:32:57;;;;;;;9.73;6.40;;;;;;;;;;6212005;23;20087;-79
2023/06/02 23:35:23;;;;;;;8.85;6.70;;;;;;;;;;6211271;23;20008;-79
2023/06/02 23:37:49;;;;;;;11.40;7.28;;;;;;;;;;6212139;23;20119;-79
2023/06/02 23:40:15;;;;;;;11.02;7.00;;;;;;;;;;6211764;23;20012;-79
2023/06/02 23:42:42;;;;;;;12.40;8.43;;;;;;;;;;6211600;23;20050;-79
2023/06/02 23:45:08;;;;;;;11.52;7.32;;;;;;;;;;6211566;23;20013;-79
2023/06/02 23:47:34;;;;;;;12.02;7.10;;;;;;;;;;6212275;23;20007;-80
2023/06/02 23:50:00;;;;;;;12.70;7.95;;;;;;;;;;6211590;23;20016;-79
2023/06/02 23:52:26;;;;;;;15.05;8.02;;;;;;;;;;6211904;23;20136;-79
2023/06/02 23:54:52;;;;;;;12.15;8.80;;;;;;;;;;6211133;23;20017;-79
2023/06/02 23:57:18;;;;;;;12.98;8.13;;;;;;;;;;6211852;23;20004;-80
2023/06/02 23:59:45;;;;;;;10.00;6.80;;;;;;;;;;6209737;23;20074;-79
